Time;durP1;ratioP1;P1;durP2;ratioP2;P2;SDS_P1;SDS_P2;PMS_P1;PMS_P2;Temp;Humidity;BMP_temperature;BMP_pressure;BME280_temperature;BME280_humidity;BME280_pressure;Samples;Min_cycle;Max_cycle;Signal;HPM_P1;HPM_P2
2023/10/03 00:02:05;;;;;;;0.50;0.50;;;19.30;62.90;;;;;;5176593;27;20446;-68
2023/10/03 00:04:31;;;;;;;1.00;1.00;;;19.30;63.20;;;;;;5176489;27;20068;-69
2023/10/03 00:06:57;;;;;;;1.25;1.15;;;19.30;63.20;;;;;;5174243;27;20026;-69
2023/10/03 00:09:23;;;;;;;0.50;0.50;;;19.30;63.40;;;;;;5176756;27;20391;-69
2023/10/03 00:11:48;;;;;;;0.63;0.63;;;19.30;63.60;;;;;;5174285;27;20022;-69
2023/10/03 00:14:15;;;;;;;2.80;1.40;;;19.30;63.50;;;;;;5176045;27;20082;-69
2023/10/03 00:16:41;;;;;;;0.88;0.88;;;19.30;63.50;;;;;;5176086;27;20463;-69
2023/10/03 00:19:07;;;;;;;0.40;0.40;;;19.30;63.40;;;;;;5175666;27;20431;-68
2023/10/03 00:21:33;;;;;;;2.65;1.02;;;19.30;63.60;;;;;;5174982;27;20024;-68
2023/10/03 00:24:01;;;;;;;0.60;0.60;;;19.20;63.60;;;;;;5175165;27;20018;-69
2023/10/03 00:26:28;;;;;;;0.85;0.85;;;19.20;63.60;;;;;;5175522;27;20029;-69
2023/10/03 00:28:56;;;;;;;1.27;1.17;;;19.20;63.70;;;;;;5175330;27;20026;-69
2023/10/03 00:31:22;;;;;;;4.57;1.45;;;19.20;63.80;;;;;;5174008;27;20074;-69
2023/10/03 00:33:48;;;;;;;3.78;1.85;;;19.20;64.00;;;;;;5174952;27;20010;-69
2023/10/03 00:36:22;;;;;;;1.35;1.15;;;19.20;63.90;;;;;;5160618;27;20026;-68
2023/10/03 00:38:47;;;;;;;0.82;0.82;;;19.10;63.90;;;;;;5173077;27;20060;-69
2023/10/03 00:41:13;;;;;;;0.73;0.73;;;19.10;63.80;;;;;;5174611;27;20447;-68
2023/10/03 00:44:00;;;;;;;1.75;1.50;;;19.10;63.90;;;;;;5174754;27;20379;-68
2023/10/03 00:46:27;;;;;;;0.82;0.82;;;19.00;64.00;;;;;;5172818;27;20048;-69
2023/10/03 00:48:53;;;;;;;0.52;0.52;;;19.00;64.00;;;;;;5174582;27;20469;-68
2023/10/03 00:51:20;;;;;;;0.40;0.40;;;19.00;64.10;;;;;;5174443;27;20153;-68
2023/10/03 00:53:47;;;;;;;0.85;0.85;;;19.00;64.20;;;;;;5174636;27;20105;-68
2023/10/03 00:56:14;;;;;;;0.77;0.77;;;19.00;64.40;;;;;;5174415;27;20022;-68
2023/10/03 00:58:41;;;;;;;1.25;1.15;;;19.00;64.50;;;;;;5173371;27;20022;-67
2023/10/03 01:01:09;;;;;;;1.00;1.00;;;19.00;64.60;;;;;;5174923;27;20030;-68
2023/10/03 01:03:39;;;;;;;1.42;1.33;;;19.00;64.60;;;;;;5175039;27;20049;-69
2023/10/03 01:06:09;;;;;;;1.92;0.98;;;19.00;64.70;;;;;;5174947;27;20083;-69
2023/10/03 01:08:46;;;;;;;0.80;0.80;;;19.00;64.90;;;;;;5174359;27;20026;-69
2023/10/03 01:11:17;;;;;;;0.95;0.85;;;19.00;64.80;;;;;;5174501;27;20105;-69
2023/10/03 01:13:47;;;;;;;0.45;0.45;;;19.00;64.80;;;;;;5173234;27;20025;-68
2023/10/03 01:16:13;;;;;;;1.50;1.40;;;18.90;65.00;;;;;;5174552;27;20047;-68
2023/10/03 01:18:41;;;;;;;0.70;0.70;;;19.00;65.00;;;;;;5172127;27;20394;-69
2023/10/03 01:21:10;;;;;;;1.85;0.82;;;19.00;65.00;;;;;;5174935;27;20026;-69
2023/10/03 01:23:39;;;;;;;0.98;0.90;;;19.00;65.00;;;;;;5174036;27;20019;-68
2023/10/03 01:26:05;;;;;;;0.60;0.60;;;18.90;65.00;;;;;;5174999;27;20032;-68
2023/10/03 01:28:30;;;;;;;0.50;0.50;;;18.90;65.00;;;;;;5174252;27;20026;-69
2023/10/03 01:30:57;;;;;;;0.70;0.70;;;18.90;64.90;;;;;;5163548;27;20073;-69
2023/10/03 01:33:26;;;;;;;0.82;0.82;;;18.90;64.90;;;;;;5174801;27;20121;-69
2023/10/03 01:35:53;;;;;;;1.27;1.15;;;18.80;65.10;;;;;;5174997;27;20018;-69
2023/10/03 01:38:19;;;;;;;0.82;0.82;;;18.80;65.20;;;;;;5162419;27;20015;-69
2023/10/03 01:40:49;;;;;;;0.50;0.50;;;18.80;65.40;;;;;;5174597;27;20049;-70
2023/10/03 01:43:15;;;;;;;1.05;1.05;;;18.80;65.30;;;;;;5174248;27;20038;-69
2023/10/03 01:45:40;;;;;;;1.33;1.23;;;18.80;65.20;;;;;;5174164;27;20057;-69
2023/10/03 01:48:07;;;;;;;1.92;1.25;;;18.70;65.20;;;;;;5173595;27;20056;-69
2023/10/03 01:50:34;;;;;;;1.27;1.17;;;18.70;65.50;;;;;;5173805;27;20074;-69
2023/10/03 01:52:59;;;;;;;0.63;0.63;;;18.70;65.60;;;;;;5173341;27;20557;-70
2023/10/03 01:55:25;;;;;;;0.50;0.50;;;18.70;65.60;;;;;;5174275;27;20026;-69
2023/10/03 01:57:50;;;;;;;2.05;0.93;;;18.80;65.60;;;;;;5173826;27;20018;-67
2023/10/03 02:02:45;;;;;;;1.60;1.50;;;18.80;65.80;;;;;;5174455;27;20059;-69
2023/10/03 02:05:12;;;;;;;0.90;0.88;;;18.80;66.00;;;;;;5174242;27;20018;-69
2023/10/03 02:07:38;;;;;;;0.95;0.95;;;18.80;66.10;;;;;;5173842;27;20022;-69
2023/10/03 02:10:05;;;;;;;1.15;1.05;;;18.80;66.20;;;;;;5173935;27;20018;-69
2023/10/03 02:12:30;;;;;;;0.90;0.90;;;18.80;66.30;;;;;;5172744;27;20049;-69
2023/10/03 02:14:56;;;;;;;0.63;0.60;;;18.80;66.30;;;;;;5174192;27;20038;-67
2023/10/03 02:17:21;;;;;;;1.00;0.95;;;18.90;66.30;;;;;;5173996;27;20515;-70
2023/10/03 02:19:48;;;;;;;0.40;0.40;;;19.00;66.30;;;;;;5174268;27;20038;-69
2023/10/03 02:22:14;;;;;;;0.60;0.60;;;19.00;66.30;;;;;;5173136;27;20106;-69
2023/10/03 02:24:39;;;;;;;0.60;0.60;;;19.10;66.40;;;;;;5173925;27;20053;-69
2023/10/03 02:27:09;;;;;;;0.73;0.73;;;19.10;66.30;;;;;;5172131;27;20024;-69
2023/10/03 02:29:35;;;;;;;1.00;0.88;;;19.10;66.30;;;;;;5175259;27;20057;-69
2023/10/03 02:32:05;;;;;;;0.40;0.40;;;19.20;66.30;;;;;;5176711;27;20065;-69
2023/10/03 02:34:33;;;;;;;1.05;1.05;;;19.20;66.30;;;;;;5177925;27;20030;-69
2023/10/03 02:36:59;;;;;;;1.38;1.20;;;19.30;66.20;;;;;;5172321;27;20019;-69
2023/10/03 02:39:25;;;;;;;0.50;0.50;;;19.30;66.20;;;;;;5171666;27;20041;-68
2023/10/03 02:41:52;;;;;;;1.20;1.05;;;19.30;66.10;;;;;;5177463;27;20527;-68
2023/10/03 02:44:17;;;;;;;0.40;0.40;;;19.40;66.00;;;;;;5177667;27;20508;-69
2023/10/03 02:46:44;;;;;;;0.40;0.40;;;19.40;66.10;;;;;;5177682;27;20022;-68
2023/10/03 02:49:10;;;;;;;1.40;1.30;;;19.50;66.30;;;;;;5176042;27;20432;-68
2023/10/03 02:51:36;;;;;;;2.95;1.77;;;19.50;66.40;;;;;;5177345;27;20018;-68
2023/10/03 02:54:01;;;;;;;2.35;1.65;;;19.60;66.40;;;;;;5177350;27;20071;-69
2023/10/03 02:56:27;;;;;;;0.50;0.50;;;19.70;66.40;;;;;;5177586;27;20162;-68
2023/10/03 02:58:53;;;;;;;1.30;1.20;;;19.70;66.20;;;;;;5177513;27;20121;-69
2023/10/03 03:01:21;;;;;;;1.05;0.95;;;19.80;66.10;;;;;;5177083;27;20022;-69
2023/10/03 03:03:48;;;;;;;0.77;0.77;;;19.80;66.00;;;;;;5177197;27;20518;-69
2023/10/03 03:06:14;;;;;;;1.95;1.67;;;19.80;65.90;;;;;;5177458;27;20022;-68
2023/10/03 03:08:41;;;;;;;0.75;0.75;;;19.80;65.90;;;;;;5176637;27;20091;-68
2023/10/03 03:11:08;;;;;;;0.50;0.50;;;19.80;65.80;;;;;;5177329;27;20455;-69
2023/10/03 03:13:37;;;;;;;0.70;0.70;;;19.80;65.80;;;;;;5176581;27;20021;-69
2023/10/03 03:16:04;;;;;;;0.70;0.70;;;19.80;65.80;;;;;;5177381;27;20022;-69
2023/10/03 03:18:39;;;;;;;3.58;1.52;;;19.80;65.80;;;;;;5176944;27;20053;-68
2023/10/03 03:21:08;;;;;;;0.40;0.40;;;19.80;65.80;;;;;;5177007;27;20036;-68
2023/10/03 03:23:38;;;;;;;1.30;1.20;;;19.80;65.90;;;;;;5176741;27;20018;-68
2023/10/03 03:26:35;;;;;;;0.50;0.50;;;19.80;65.80;;;;;;5177020;27;20105;-69
2023/10/03 03:29:00;;;;;;;1.65;1.20;;;19.80;65.80;;;;;;5155875;27;20109;-68
2023/10/03 03:31:26;;;;;;;0.65;0.65;;;19.80;65.80;;;;;;5176360;27;20545;-68
2023/10/03 03:33:56;;;;;;;2.15;0.82;;;19.80;65.80;;;;;;5176071;27;20471;-68
2023/10/03 03:36:24;;;;;;;0.83;0.83;;;19.80;65.80;;;;;;5176528;27;20019;-68
2023/10/03 03:38:51;;;;;;;0.60;0.60;;;19.80;65.80;;;;;;5156111;27;20083;-68
2023/10/03 03:41:18;;;;;;;1.15;1.15;;;19.80;65.90;;;;;;5175245;27;20113;-69
2023/10/03 03:43:44;;;;;;;0.55;0.55;;;19.80;65.90;;;;;;5175945;27;20053;-69
2023/10/03 03:46:10;;;;;;;3.83;1.05;;;19.80;66.00;;;;;;5176322;27;20072;-68
2023/10/03 03:48:36;;;;;;;0.45;0.45;;;19.80;66.10;;;;;;5176190;27;20068;-69
2023/10/03 03:51:11;;;;;;;1.10;1.05;;;19.90;66.00;;;;;;5155523;27;20046;-69
2023/10/03 03:53:37;;;;;;;0.57;0.57;;;20.00;66.20;;;;;;5169290;27;20018;-68
2023/10/03 03:56:07;;;;;;;0.50;0.50;;;20.00;66.40;;;;;;5175860;27;20070;-69
2023/10/03 03:58:34;;;;;;;1.23;1.13;;;20.20;66.70;;;;;;5161465;27;20082;-68
2023/10/03 04:01:00;;;;;;;7.32;1.75;;;20.40;66.60;;;;;;5176280;27;20031;-68
2023/10/03 04:03:34;;;;;;;0.77;0.63;;;20.50;66.70;;;;;;5175615;27;20538;-68
2023/10/03 04:06:01;;;;;;;0.80;0.80;;;20.70;66.40;;;;;;5175828;27;20454;-68
2023/10/03 04:08:26;;;;;;;8.77;2.83;;;20.90;66.10;;;;;;5175686;27;20418;-69
2023/10/03 04:10:53;;;;;;;1.17;1.05;;;21.20;66.00;;;;;;5174600;27;20026;-69
2023/10/03 04:13:20;;;;;;;1.42;1.05;;;21.30;65.70;;;;;;5175634;27;20074;-69
2023/10/03 04:15:47;;;;;;;0.73;0.65;;;21.40;65.40;;;;;;5176199;27;20459;-68
2023/10/03 04:18:15;;;;;;;1.48;1.23;;;21.60;64.90;;;;;;5175851;27;20452;-67
2023/10/03 04:20:44;;;;;;;0.90;0.90;;;21.70;64.60;;;;;;5175313;27;20071;-67
2023/10/03 04:23:11;;;;;;;0.95;0.90;;;21.80;64.20;;;;;;5174818;27;20074;-67
2023/10/03 04:25:38;;;;;;;1.15;1.08;;;22.00;63.90;;;;;;5175568;27;20450;-67
2023/10/03 04:28:05;;;;;;;1.80;1.50;;;22.10;63.70;;;;;;5175226;27;20070;-67
2023/10/03 04:30:30;;;;;;;1.35;1.25;;;22.30;63.20;;;;;;5175759;27;20461;-68
2023/10/03 04:32:57;;;;;;;0.98;0.98;;;22.30;62.90;;;;;;5168973;27;20107;-67
2023/10/03 04:35:24;;;;;;;1.20;1.05;;;22.50;62.30;;;;;;5175215;27;20023;-69
2023/10/03 04:37:51;;;;;;;0.65;0.65;;;22.50;61.80;;;;;;5168221;27;20029;-67
2023/10/03 04:40:36;;;;;;;2.15;1.90;;;22.70;61.30;;;;;;5175611;27;21020;-67
2023/10/03 04:43:07;;;;;;;1.35;1.25;;;22.80;61.20;;;;;;5174671;27;20387;-68
2023/10/03 04:45:35;;;;;;;2.55;1.92;;;22.80;61.00;;;;;;5174830;27;20018;-67
2023/10/03 04:48:01;;;;;;;2.88;2.30;;;22.90;60.70;;;;;;5174443;27;20486;-68
2023/10/03 04:50:27;;;;;;;1.50;1.27;;;23.00;60.70;;;;;;5174799;27;20058;-68
2023/10/03 04:52:53;;;;;;;1.65;1.55;;;23.10;60.10;;;;;;5174691;27;20110;-67
2023/10/03 04:55:21;;;;;;;0.75;0.75;;;23.10;59.60;;;;;;5175091;27;20030;-66
2023/10/03 04:57:50;;;;;;;1.67;1.45;;;23.20;59.60;;;;;;5174125;27;20540;-67
2023/10/03 05:00:17;;;;;;;1.10;0.70;;;23.30;58.80;;;;;;5174358;27;20035;-67
2023/10/03 05:02:50;;;;;;;2.13;1.60;;;23.30;58.20;;;;;;5174127;27;20026;-66
2023/10/03 05:05:26;;;;;;;1.45;1.10;;;23.40;58.10;;;;;;5173278;27;20073;-66
2023/10/03 05:07:53;;;;;;;1.08;1.00;;;23.40;57.70;;;;;;5175040;27;20466;-67
2023/10/03 05:10:20;;;;;;;1.10;0.95;;;23.50;57.30;;;;;;5174082;27;20030;-67
2023/10/03 05:12:46;;;;;;;0.73;0.68;;;23.60;57.50;;;;;;5173894;27;20022;-67
2023/10/03 05:15:14;;;;;;;0.98;0.95;;;23.70;57.30;;;;;;5174431;27;20030;-67
2023/10/03 05:17:41;;;;;;;8.35;2.63;;;23.70;57.00;;;;;;5173934;27;20018;-68
2023/10/03 05:20:07;;;;;;;1.38;1.27;;;23.80;57.00;;;;;;5174401;27;20486;-68
2023/10/03 05:22:33;;;;;;;1.08;0.95;;;23.80;56.90;;;;;;5172864;27;20019;-68
2023/10/03 05:25:03;;;;;;;2.42;0.95;;;23.80;56.10;;;;;;5174214;27;20033;-68
2023/10/03 05:27:29;;;;;;;3.53;1.27;;;24.00;56.30;;;;;;5173624;27;20014;-67
2023/10/03 05:29:59;;;;;;;1.45;1.35;;;24.00;55.90;;;;;;5174053;27;20117;-68
2023/10/03 05:32:28;;;;;;;1.80;1.67;;;24.10;55.80;;;;;;5173490;27;20178;-68
2023/10/03 05:34:54;;;;;;;2.95;1.88;;;24.10;55.70;;;;;;5174231;27;20022;-67
2023/10/03 05:37:19;;;;;;;1.23;1.13;;;24.10;55.50;;;;;;5167967;27;20019;-69
2023/10/03 05:39:45;;;;;;;5.20;2.47;;;24.20;55.20;;;;;;5174265;27;20042;-67
2023/10/03 05:42:10;;;;;;;1.30;1.20;;;24.20;55.30;;;;;;5173808;27;20022;-68
2023/10/03 05:44:39;;;;;;;0.88;0.88;;;24.20;55.20;;;;;;5174028;27;20031;-69
2023/10/03 05:47:05;;;;;;;0.63;0.63;;;24.30;55.30;;;;;;5173927;27;20117;-68
2023/10/03 05:49:30;;;;;;;1.25;1.15;;;24.20;54.90;;;;;;5173985;27;20420;-68
2023/10/03 05:51:56;;;;;;;0.77;0.77;;;24.30;54.70;;;;;;5173870;27;20018;-68
2023/10/03 05:54:25;;;;;;;11.30;2.08;;;24.30;54.50;;;;;;5173815;27;20413;-66
2023/10/03 05:56:52;;;;;;;3.20;1.60;;;24.30;54.80;;;;;;5173780;27;20014;-66
2023/10/03 05:59:18;;;;;;;1.63;1.52;;;24.30;54.80;;;;;;5173464;27;20057;-66
2023/10/03 06:01:44;;;;;;;3.55;1.63;;;24.30;54.70;;;;;;5173688;27;20044;-67
2023/10/03 06:04:10;;;;;;;4.40;1.58;;;24.40;54.90;;;;;;5173007;27;20034;-67
2023/10/03 06:06:36;;;;;;;1.23;1.00;;;24.40;54.90;;;;;;5173530;27;20102;-69
2023/10/03 06:09:02;;;;;;;1.75;1.63;;;24.40;54.70;;;;;;5172485;27;20023;-67
2023/10/03 06:11:29;;;;;;;1.10;0.98;;;24.30;55.00;;;;;;5173459;27;20074;-68
2023/10/03 06:13:58;;;;;;;1.23;1.17;;;24.40;55.00;;;;;;5173674;27;20054;-67
2023/10/03 06:16:26;;;;;;;1.52;1.35;;;24.40;54.40;;;;;;5173665;27;20022;-67
2023/10/03 06:18:52;;;;;;;2.70;1.40;;;24.40;55.00;;;;;;5173554;27;20383;-67
2023/10/03 06:21:17;;;;;;;1.40;1.30;;;24.40;54.90;;;;;;5173432;27;20035;-67
2023/10/03 06:23:46;;;;;;;1.35;1.25;;;24.40;54.80;;;;;;5173463;27;20455;-67
2023/10/03 06:26:14;;;;;;;1.55;0.82;;;24.50;54.90;;;;;;5173264;27;20035;-68
2023/10/03 06:28:39;;;;;;;0.47;0.47;;;24.50;55.10;;;;;;5173275;27;20162;-68
2023/10/03 06:31:05;;;;;;;1.75;1.15;;;24.50;55.20;;;;;;5173946;27;20117;-67
2023/10/03 06:33:30;;;;;;;1.48;1.25;;;24.60;55.00;;;;;;5173380;27;20550;-67
2023/10/03 06:35:56;;;;;;;1.60;1.33;;;24.70;55.10;;;;;;5173207;27;20390;-67
2023/10/03 06:38:23;;;;;;;2.63;1.25;;;24.70;55.00;;;;;;5156256;27;20075;-67
2023/10/03 06:40:49;;;;;;;1.65;1.35;;;24.80;55.00;;;;;;5152748;27;20038;-68
2023/10/03 06:43:14;;;;;;;2.88;1.98;;;24.80;54.70;;;;;;5156352;27;20507;-68
2023/10/03 06:45:40;;;;;;;0.50;0.50;;;24.80;54.60;;;;;;5173024;27;20056;-68
2023/10/03 06:48:06;;;;;;;3.60;1.30;;;24.90;54.90;;;;;;5173269;27;20027;-68
2023/10/03 06:50:32;;;;;;;1.27;1.17;;;24.90;55.30;;;;;;5173616;27;20034;-68
2023/10/03 06:52:58;;;;;;;1.45;1.35;;;25.00;55.20;;;;;;5172877;27;20400;-69
2023/10/03 06:55:23;;;;;;;5.25;1.75;;;25.10;55.10;;;;;;5173312;27;20030;-67
2023/10/03 06:57:50;;;;;;;1.27;1.17;;;25.20;54.90;;;;;;5173228;27;20025;-68
2023/10/03 07:00:16;;;;;;;0.68;0.68;;;25.20;54.50;;;;;;5173231;27;20033;-68
2023/10/03 07:02:42;;;;;;;3.38;1.77;;;25.20;54.20;;;;;;5173331;27;20098;-68
2023/10/03 07:05:08;;;;;;;6.55;2.05;;;25.20;54.40;;;;;;5173135;27;20031;-68
2023/10/03 07:07:34;;;;;;;0.57;0.57;;;25.20;54.30;;;;;;5173187;27;20033;-68
2023/10/03 07:10:00;;;;;;;1.27;1.13;;;25.30;54.20;;;;;;5172809;27;20026;-68
2023/10/03 07:12:26;;;;;;;3.75;1.13;;;25.30;54.20;;;;;;5172529;27;20029;-68
2023/10/03 07:14:51;;;;;;;1.75;1.17;;;25.40;54.40;;;;;;5173001;27;20033;-69
2023/10/03 07:17:17;;;;;;;1.88;1.25;;;25.40;54.40;;;;;;5175472;27;20026;-67
2023/10/03 07:19:48;;;;;;;1.00;1.00;;;25.50;54.40;;;;;;5176720;27;20034;-68
2023/10/03 07:22:14;;;;;;;1.17;1.10;;;25.50;54.00;;;;;;5176216;27;20027;-68
2023/10/03 07:24:39;;;;;;;0.98;0.77;;;25.60;54.00;;;;;;5177272;27;20044;-68
2023/10/03 07:27:07;;;;;;;0.73;0.70;;;25.60;53.50;;;;;;5175137;27;20101;-68
2023/10/03 07:29:33;;;;;;;1.30;1.20;;;25.70;53.10;;;;;;5176484;27;20526;-68
2023/10/03 07:31:59;;;;;;;1.02;0.95;;;25.80;52.70;;;;;;5176485;27;20020;-68
2023/10/03 07:34:25;;;;;;;0.82;0.82;;;25.80;52.70;;;;;;5176227;27;20113;-69
2023/10/03 07:36:50;;;;;;;1.25;1.15;;;25.80;52.70;;;;;;5171123;27;20490;-68
2023/10/03 07:39:17;;;;;;;0.68;0.68;;;25.90;52.70;;;;;;5162924;27;20069;-68
2023/10/03 07:41:43;;;;;;;1.98;1.20;;;26.00;52.40;;;;;;5175583;27;20379;-68
2023/10/03 07:44:10;;;;;;;0.90;0.90;;;26.00;52.50;;;;;;5176348;27;20026;-67
2023/10/03 07:46:36;;;;;;;7.65;1.92;;;26.10;52.50;;;;;;5175992;27;20057;-67
2023/10/03 07:49:02;;;;;;;0.80;0.77;;;26.20;52.10;;;;;;5175906;27;20066;-67
2023/10/03 07:51:29;;;;;;;1.63;1.40;;;26.30;52.40;;;;;;5175981;27;20390;-68
2023/10/03 07:53:55;;;;;;;1.70;0.93;;;26.50;52.20;;;;;;5176160;27;20070;-68
2023/10/03 07:56:25;;;;;;;15.50;2.17;;;26.60;51.50;;;;;;5176041;27;20026;-67
2023/10/03 07:58:54;;;;;;;1.02;1.02;;;26.60;51.30;;;;;;5176191;27;20101;-67
2023/10/03 08:01:27;;;;;;;0.82;0.73;;;26.60;50.80;;;;;;5175843;27;20030;-68
2023/10/03 08:03:55;;;;;;;0.82;0.82;;;26.70;50.40;;;;;;5175765;27;20041;-68
2023/10/03 08:06:27;;;;;;;1.50;0.90;;;26.60;50.30;;;;;;5174326;27;20037;-69
2023/10/03 08:08:55;;;;;;;2.85;1.48;;;26.60;50.30;;;;;;5156428;27;20611;-69
2023/10/03 08:11:28;;;;;;;2.35;1.15;;;26.60;50.40;;;;;;5154717;27;20101;-68
2023/10/03 08:13:55;;;;;;;5.68;1.30;;;26.70;50.50;;;;;;5154173;27;20040;-68
2023/10/03 08:16:22;;;;;;;0.65;0.65;;;26.80;50.40;;;;;;5175479;27;20018;-66
2023/10/03 08:18:57;;;;;;;0.70;0.70;;;26.90;50.10;;;;;;5162085;27;20022;-69
2023/10/03 08:21:27;;;;;;;5.88;0.80;;;27.00;49.60;;;;;;5154558;27;20552;-69
2023/10/03 08:23:56;;;;;;;1.15;1.05;;;27.10;49.60;;;;;;5163504;27;20026;-69
2023/10/03 08:26:23;;;;;;;2.58;0.80;;;27.20;49.40;;;;;;5175317;27;20413;-67
2023/10/03 08:28:59;;;;;;;1.05;0.85;;;27.30;49.20;;;;;;5162426;27;20019;-67
2023/10/03 08:31:27;;;;;;;0.98;0.95;;;27.30;48.80;;;;;;5154216;27;20023;-68
2023/10/03 08:33:55;;;;;;;1.30;0.82;;;27.30;48.60;;;;;;5154531;27;20105;-67
2023/10/03 08:36:22;;;;;;;0.88;0.88;;;27.20;48.80;;;;;;5163186;27;20097;-69
2023/10/03 08:38:48;;;;;;;1.65;1.05;;;27.10;48.70;;;;;;5154126;27;20110;-70
2023/10/03 08:41:22;;;;;;;0.77;0.77;;;27.00;48.90;;;;;;5165885;27;20065;-70
2023/10/03 08:43:54;;;;;;;1.85;1.17;;;26.80;49.20;;;;;;5173370;27;20018;-69
2023/10/03 08:46:27;;;;;;;1.75;1.45;;;26.70;49.40;;;;;;5174284;27;20059;-69
2023/10/03 08:49:00;;;;;;;0.70;0.70;;;26.60;49.60;;;;;;5161819;27;20030;-70
2023/10/03 08:51:32;;;;;;;1.10;1.00;;;26.50;49.60;;;;;;5165091;27;20409;-70
2023/10/03 08:54:12;;;;;;;1.38;1.25;;;26.50;49.90;;;;;;5172933;27;20020;-70
2023/10/03 08:56:41;;;;;;;0.75;0.75;;;26.40;49.80;;;;;;5155047;27;20387;-70
2023/10/03 08:59:09;;;;;;;1.13;0.98;;;26.30;49.90;;;;;;5164228;27;20042;-70
2023/10/03 09:01:43;;;;;;;0.75;0.75;;;26.30;50.10;;;;;;5171733;27;20061;-70
2023/10/03 09:04:15;;;;;;;0.63;0.63;;;26.40;50.20;;;;;;5155133;27;20383;-70
2023/10/03 09:06:43;;;;;;;0.55;0.55;;;26.60;50.00;;;;;;5161745;27;20026;-71
2023/10/03 09:09:10;;;;;;;0.70;0.70;;;26.70;49.90;;;;;;5176261;27;20086;-70
2023/10/03 09:11:43;;;;;;;2.03;1.10;;;26.90;49.50;;;;;;5172949;27;20014;-71
2023/10/03 09:14:19;;;;;;;1.05;0.82;;;27.10;48.90;;;;;;5166004;27;20103;-70
2023/10/03 09:16:50;;;;;;;0.50;0.50;;;27.30;48.00;;;;;;5167406;27;20025;-69
2023/10/03 09:19:26;;;;;;;0.85;0.85;;;27.30;47.70;;;;;;5175008;27;20037;-70
2023/10/03 09:21:54;;;;;;;0.70;0.70;;;27.40;47.40;;;;;;5173457;27;20023;-70
2023/10/03 09:24:25;;;;;;;0.98;0.98;;;27.30;47.00;;;;;;5175023;27;20045;-70
2023/10/03 09:27:02;;;;;;;0.60;0.60;;;27.30;47.00;;;;;;5173274;27;20382;-70
2023/10/03 09:29:30;;;;;;;0.40;0.40;;;27.30;46.90;;;;;;5173246;27;20114;-69
2023/10/03 09:32:12;;;;;;;0.75;0.65;;;27.10;46.90;;;;;;5172240;27;20029;-69
2023/10/03 09:34:40;;;;;;;0.80;0.80;;;27.00;46.90;;;;;;5173885;27;20022;-70
2023/10/03 09:37:07;;;;;;;0.88;0.85;;;26.90;47.10;;;;;;5172424;27;20071;-70
2023/10/03 09:39:48;;;;;;;0.52;0.52;;;26.80;47.40;;;;;;5171311;27;20026;-69
2023/10/03 09:42:19;;;;;;;0.52;0.52;;;26.70;47.70;;;;;;5174654;27;20038;-70
2023/10/03 09:44:48;;;;;;;2.08;0.88;;;26.50;48.10;;;;;;5157652;27;20030;-70
2023/10/03 09:47:17;;;;;;;0.70;0.70;;;26.40;48.30;;;;;;5170632;27;20034;-70
2023/10/03 09:49:43;;;;;;;0.63;0.63;;;26.40;48.60;;;;;;5174142;27;20046;-71
2023/10/03 09:52:22;;;;;;;1.50;1.40;;;26.50;48.70;;;;;;5174219;27;20018;-69
2023/10/03 09:54:53;;;;;;;0.85;0.80;;;26.60;49.00;;;;;;5175432;27;20045;-70
2023/10/03 09:57:23;;;;;;;0.55;0.55;;;26.70;49.00;;;;;;5171675;27;20014;-69
2023/10/03 09:59:50;;;;;;;0.98;0.88;;;26.70;49.20;;;;;;5174062;27;20030;-69
2023/10/03 10:02:36;;;;;;;0.45;0.45;;;26.50;49.90;;;;;;5172586;27;20030;-69
2023/10/03 10:05:21;;;;;;;3.60;0.80;;;26.30;50.50;;;;;;5166292;27;20031;-69
2023/10/03 10:08:13;;;;;;;0.80;0.80;;;26.20;50.90;;;;;;5154896;27;20023;-69
2023/10/03 10:10:41;;;;;;;0.40;0.40;;;26.20;50.80;;;;;;5152503;27;20483;-69
2023/10/03 10:13:20;;;;;;;0.70;0.70;;;26.10;51.00;;;;;;5153750;27;20057;-71
2023/10/03 10:16:07;;;;;;;0.60;0.60;;;26.00;51.00;;;;;;5169499;27;20066;-69
2023/10/03 10:18:44;;;;;;;0.60;0.60;;;26.00;51.20;;;;;;5169516;27;20054;-70
2023/10/03 10:21:23;;;;;;;0.45;0.45;;;25.90;51.40;;;;;;5159821;27;20585;-70
2023/10/03 10:24:20;;;;;;;0.50;0.50;;;25.80;51.60;;;;;;5173920;27;20471;-70
2023/10/03 10:26:48;;;;;;;0.60;0.60;;;25.80;51.60;;;;;;5172575;27;20531;-70
2023/10/03 10:29:19;;;;;;;0.50;0.50;;;25.80;51.60;;;;;;5174515;27;20030;-69
2023/10/03 10:31:49;;;;;;;1.20;1.10;;;25.90;51.70;;;;;;5174662;27;20026;-69
2023/10/03 10:34:36;;;;;;;0.80;0.80;;;26.10;51.70;;;;;;5173832;27;20034;-70
2023/10/03 10:37:09;;;;;;;0.50;0.50;;;26.10;50.90;;;;;;5174190;27;20021;-70
2023/10/03 10:39:54;;;;;;;0.50;0.50;;;26.20;50.60;;;;;;5165998;27;20048;-71
2023/10/03 10:42:26;;;;;;;0.50;0.50;;;26.30;50.50;;;;;;5174071;27;20022;-71
2023/10/03 10:45:20;;;;;;;3.20;0.93;;;26.40;50.00;;;;;;5162010;27;20034;-71
2023/10/03 10:47:49;;;;;;;0.40;0.40;;;26.50;50.00;;;;;;5167200;27;20030;-70
2023/10/03 10:50:17;;;;;;;0.75;0.75;;;26.60;49.40;;;;;;5173883;27;20603;-71
2023/10/03 10:52:55;;;;;;;1.27;1.02;;;26.70;49.30;;;;;;5178561;27;20498;-71
2023/10/03 10:55:23;;;;;;;0.55;0.55;;;26.80;48.80;;;;;;5170560;27;20036;-71
2023/10/03 10:58:12;;;;;;;0.98;0.88;;;26.80;48.50;;;;;;5178578;27;20075;-71
2023/10/03 11:00:39;;;;;;;0.98;0.70;;;26.80;48.60;;;;;;5168165;27;20018;-70
2023/10/03 11:03:06;;;;;;;0.47;0.47;;;26.80;48.50;;;;;;5176498;27;20431;-70
2023/10/03 11:05:42;;;;;;;0.55;0.55;;;26.60;48.50;;;;;;5176929;27;20019;-70
2023/10/03 11:08:08;;;;;;;1.42;0.93;;;26.50;48.80;;;;;;5171436;27;20026;-70
2023/10/03 11:10:34;;;;;;;0.68;0.68;;;26.40;49.00;;;;;;5175272;27;20018;-70
2023/10/03 11:13:03;;;;;;;0.68;0.68;;;26.40;49.20;;;;;;5172224;27;20570;-71
2023/10/03 11:15:30;;;;;;;0.50;0.50;;;26.30;52.20;;;;;;5174024;27;20144;-69
2023/10/03 11:17:57;;;;;;;1.10;0.98;;;25.90;55.00;;;;;;5179797;27;20038;-70
2023/10/03 11:20:22;;;;;;;0.60;0.60;;;25.70;57.10;;;;;;5172318;27;20014;-72
2023/10/03 11:22:48;;;;;;;0.63;0.63;;;25.70;59.10;;;;;;5181171;27;20085;-71
2023/10/03 11:25:14;;;;;;;1.60;0.77;;;25.80;60.70;;;;;;5176794;27;20041;-71
2023/10/03 11:27:40;;;;;;;0.50;0.50;;;26.10;61.70;;;;;;5168239;27;20035;-71
2023/10/03 11:30:14;;;;;;;0.60;0.60;;;26.30;62.50;;;;;;5169622;27;20191;-72
2023/10/03 11:32:43;;;;;;;0.60;0.60;;;26.50;62.10;;;;;;5179128;27;20043;-71
2023/10/03 11:35:17;;;;;;;0.40;0.40;;;26.60;61.60;;;;;;5177484;27;20033;-71
2023/10/03 11:37:44;;;;;;;0.47;0.47;;;26.70;60.50;;;;;;5173670;27;20030;-72
2023/10/03 11:40:20;;;;;;;0.50;0.50;;;26.70;61.90;;;;;;5169558;27;20030;-71
2023/10/03 11:43:07;;;;;;;0.85;0.77;;;26.80;61.90;;;;;;5170978;27;20485;-71
2023/10/03 11:45:34;;;;;;;0.50;0.50;;;26.70;59.80;;;;;;5178157;27;20411;-72
2023/10/03 11:48:11;;;;;;;1.20;0.73;;;26.70;60.30;;;;;;5159358;27;20039;-70
2023/10/03 11:50:40;;;;;;;0.95;0.75;;;26.60;60.00;;;;;;5159433;27;20031;-71
2023/10/03 11:53:08;;;;;;;0.63;0.63;;;26.40;59.70;;;;;;5177880;27;20030;-70
2023/10/03 11:55:36;;;;;;;2.53;1.08;;;26.30;60.50;;;;;;5178373;27;20026;-70
2023/10/03 11:58:03;;;;;;;0.60;0.60;;;26.30;60.50;;;;;;5179146;27;20375;-69
2023/10/03 12:00:29;;;;;;;0.50;0.50;;;26.30;60.00;;;;;;5168525;27;20019;-71
2023/10/03 12:02:55;;;;;;;1.42;0.60;;;26.20;58.10;;;;;;5175131;27;20048;-71
2023/10/03 12:05:22;;;;;;;0.50;0.50;;;26.10;58.60;;;;;;5178974;27;20022;-71
2023/10/03 12:07:50;;;;;;;1.40;0.63;;;26.00;58.90;;;;;;5178332;27;20026;-74
2023/10/03 12:10:17;;;;;;;0.47;0.47;;;25.70;58.50;;;;;;5168593;27;20109;-74
2023/10/03 12:12:43;;;;;;;1.55;0.75;;;25.00;60.30;;;;;;5174198;27;20030;-74
2023/10/03 12:15:13;;;;;;;0.40;0.40;;;24.40;61.90;;;;;;5157812;27;20103;-74
2023/10/03 12:17:42;;;;;;;0.40;0.40;;;23.80;62.90;;;;;;5163141;27;20023;-74
2023/10/03 12:20:12;;;;;;;0.50;0.50;;;23.50;64.00;;;;;;5160430;27;20041;-75
2023/10/03 12:22:41;;;;;;;0.50;0.50;;;23.20;64.90;;;;;;5171074;27;20038;-74
2023/10/03 12:25:11;;;;;;;0.47;0.47;;;23.00;66.20;;;;;;5177689;27;20558;-72
2023/10/03 12:27:38;;;;;;;0.40;0.40;;;23.00;66.70;;;;;;5179520;27;20378;-73
2023/10/03 12:30:06;;;;;;;0.40;0.40;;;22.90;67.20;;;;;;5178074;27;20022;-72
2023/10/03 12:32:36;;;;;;;0.40;0.40;;;22.90;67.30;;;;;;5180661;27;20509;-73
2023/10/03 12:35:03;;;;;;;0.40;0.40;;;22.80;67.60;;;;;;5186209;27;20014;-74
2023/10/03 12:37:32;;;;;;;0.40;0.40;;;22.80;68.00;;;;;;5182671;27;20057;-74
2023/10/03 12:40:02;;;;;;;0.40;0.40;;;22.90;68.40;;;;;;5187179;27;20033;-73
2023/10/03 12:42:28;;;;;;;0.50;0.50;;;23.00;68.30;;;;;;5183521;27;20128;-75
2023/10/03 12:44:56;;;;;;;0.45;0.45;;;23.10;68.90;;;;;;5187625;27;20037;-74
2023/10/03 12:47:23;;;;;;;0.40;0.40;;;23.20;69.00;;;;;;5183417;27;20034;-73
2023/10/03 12:49:48;;;;;;;0.40;0.40;;;23.30;69.50;;;;;;5181883;27;20601;-74
2023/10/03 12:52:14;;;;;;;0.30;0.30;;;23.50;70.00;;;;;;5166148;27;20067;-73
2023/10/03 12:54:40;;;;;;;0.50;0.50;;;23.80;69.80;;;;;;5177947;27;20023;-71
2023/10/03 12:57:07;;;;;;;0.40;0.40;;;23.90;69.90;;;;;;5175833;27;20033;-74
2023/10/03 12:59:33;;;;;;;0.47;0.47;;;24.10;69.90;;;;;;5185125;27;20101;-75